上海/浦東 の空港の天気 - METARとTAF

上海浦東国際空港 ( ZSPD / PVG ) - 中国 上海市
飛行場実況気象(Metar)
観測時間01/19 19:00 CST (01/19 11:00 UTC)
風向・風速西 2m/s
視程6000m
天気現象弱い雨
全天を覆う雲 雲底高度 1220m
気温9℃
湿度81%
気圧1022hPa
METARZSPD 191100Z 27002MPS 6000 -RA OVC040 09/06 Q1022 NOSIG
過去の天気等 Google飛行場航空写真 Wunderground天気予報

過去48時間のMETAR

飛行場予報(TAF)
発表時間: 1/19 11:17 CST (1/19 03:17 UTC)
予報対象時間: 19日14時 CST ~ 20日14時 CST
風向・風速北西 4m/s
視程5000m
天気現象もや
全天の8割程度の雲 雲底高度 460m
TAF ZSPD 190317Z 1906/2006 31004MPS 5000 BR BKN015 TX12/1906Z TN04/1921Z